Victor Harbour, South Australia

3:10 PM ACST on September 26, 2016 (GMT +0930)
Victor Harbor CFS, South Australia | | Change Station

Elev 315 ft 35.53 °S, 138.60 °E | Updated 4 minutes ago

Partly Cloudy
Partly Cloudy
57.0 °F
Feels Like 57.0 °F
N
0.0
Wind Variable Wind from North
Gusts 0.0 mph

Today
High -- | Low -- °F
--% Chance of Precip.
Yesterday
High -- | Low -- °F
Precip. -- in
Pressure 29.89 in
Visibility 6.2 miles
Clouds Few 3000 ft
Dew Point 44 °F
Humidity 62%
Rainfall 0.00 in
Snow Depth Not available.
5:59 AM 6:15 PM
Waning Crescent, 21% visible
METAR YPAD 260530Z 28019KT 9999 FEW030 16/03 Q1012 NOSIG
Pressure 29.89 in
Visibility 6.2 miles
Clouds Few 3000 ft
Dew Point 44 °F
Humidity 62%
Rainfall 0.00 in
Snow Depth Not available.
5:59 AM 6:15 PM
Waning Crescent, 21% visible
METAR YPAD 260530Z 28019KT 9999 FEW030 16/03 Q1012 NOSIG

10-Day Weather Forecast

Almanac

Astronomy

Sep. 26, 2016 Rise Set
Actual Time
Civil Twilight
Nautical Twilight
Astronomical Twilight
Moon
Length of Visible Light
Length of Day
Tomorrow will be .
, % of the Moon is Illuminated

Today's Extremes

Country Highs Country Lows

Community

WunderPhotos

Upload Photos

1,941,852 photos uploaded!

WunderBlog® & News

Nearby

Air Quality

  Air Quality AQ Index Pollutant
Not available.

Snow Depth

Station Depth Elevation

Earthquake Activity

City Distance Mag. Time & Date
Minimum magnitude displayed is 2.5.

Coastal Water Temperatures

Place Temperature

Stations

Nearby Weather Stations

Station Location Temp. Windchill Dew Point Humidity Wind Precip. Elev Updated Type